createdAt,value
2022-12-13T00:00:01.799Z,1009.86
2022-12-13T00:01:01.788Z,1009.87
2022-12-13T00:02:01.912Z,1009.88
2022-12-13T00:03:01.772Z,1009.86
2022-12-13T00:04:01.848Z,1009.85
2022-12-13T00:05:01.776Z,1009.85
2022-12-13T00:06:01.735Z,1009.87
2022-12-13T00:07:01.727Z,1009.86
2022-12-13T00:08:01.780Z,1009.95
2022-12-13T00:09:01.710Z,1009.87
2022-12-13T00:10:01.671Z,1009.88
2022-12-13T00:11:01.666Z,1009.82
2022-12-13T00:12:01.650Z,1009.86
2022-12-13T00:13:01.647Z,1009.88
2022-12-13T00:14:01.646Z,1009.81
2022-12-13T00:15:01.616Z,1009.81
2022-12-13T00:16:01.632Z,1009.81
2022-12-13T00:17:01.617Z,1009.79
2022-12-13T00:18:01.649Z,1009.77
2022-12-13T00:19:01.586Z,1009.78
2022-12-13T00:20:01.566Z,1009.73
2022-12-13T00:21:01.543Z,1009.77
2022-12-13T00:22:01.524Z,1009.79
2022-12-13T00:23:01.528Z,1009.80
2022-12-13T00:24:01.535Z,1009.79
2022-12-13T00:25:01.464Z,1009.78
2022-12-13T00:26:01.503Z,1009.77
2022-12-13T00:27:01.479Z,1009.74
2022-12-13T00:28:01.452Z,1009.76
2022-12-13T00:29:01.444Z,1009.80
2022-12-13T00:30:01.449Z,1009.75
2022-12-13T00:31:19.790Z,1009.80
2022-12-13T00:32:02.499Z,1009.83
2022-12-13T00:33:01.408Z,1009.81
2022-12-13T00:34:02.151Z,1009.83
2022-12-13T00:35:01.433Z,1009.79
2022-12-13T00:36:01.400Z,1009.81
2022-12-13T00:37:01.329Z,1009.73
2022-12-13T00:38:01.357Z,1009.83
2022-12-13T00:39:01.322Z,1009.81
2022-12-13T00:40:01.330Z,1009.81
2022-12-13T00:41:01.307Z,1009.78
2022-12-13T00:42:01.311Z,1009.85
2022-12-13T00:43:01.288Z,1009.78
2022-12-13T00:44:01.277Z,1009.84
2022-12-13T00:45:01.229Z,1009.81
2022-12-13T00:46:01.250Z,1009.88
2022-12-13T00:47:01.197Z,1009.87
2022-12-13T00:48:01.245Z,1009.82
2022-12-13T00:49:01.194Z,1009.82
2022-12-13T00:50:01.197Z,1009.84
2022-12-13T00:51:01.182Z,1009.78
2022-12-13T00:52:01.192Z,1009.80
2022-12-13T00:53:01.156Z,1009.86
2022-12-13T00:54:01.151Z,1009.91
2022-12-13T00:55:01.149Z,1009.77
2022-12-13T00:56:01.130Z,1009.85
2022-12-13T00:57:01.103Z,1009.84
2022-12-13T00:58:01.076Z,1009.83
2022-12-13T00:59:01.081Z,1009.85
2022-12-13T01:00:01.089Z,1009.77
2022-12-13T01:01:01.095Z,1009.77
2022-12-13T01:02:01.024Z,1009.86
2022-12-13T01:03:01.097Z,1009.84
2022-12-13T01:04:01.009Z,1009.85
2022-12-13T01:05:01.124Z,1009.80
2022-12-13T01:06:17.102Z,1009.85
2022-12-13T01:07:01.989Z,1009.82
2022-12-13T01:08:01.017Z,1009.86
2022-12-13T01:09:00.948Z,1009.84
2022-12-13T01:10:00.963Z,1009.86
2022-12-13T01:11:00.928Z,1009.83
2022-12-13T01:12:00.910Z,1009.80
2022-12-13T01:13:00.879Z,1009.78
2022-12-13T01:14:00.907Z,1009.81
2022-12-13T01:15:00.877Z,1009.84
2022-12-13T01:16:00.878Z,1009.82
2022-12-13T01:17:00.899Z,1009.83
2022-12-13T01:18:00.881Z,1009.83
2022-12-13T01:19:00.802Z,1009.75
2022-12-13T01:20:00.821Z,1009.79
2022-12-13T01:21:00.806Z,1009.79
2022-12-13T01:22:00.825Z,1009.82
2022-12-13T01:23:00.754Z,1009.79
2022-12-13T01:24:00.782Z,1009.74
2022-12-13T01:25:00.727Z,1009.79
2022-12-13T01:26:00.718Z,1009.77
2022-12-13T01:27:00.737Z,1009.76
2022-12-13T01:28:00.740Z,1009.81
2022-12-13T01:29:00.708Z,1009.79
2022-12-13T01:30:00.678Z,1009.77
2022-12-13T01:31:00.740Z,1009.79
2022-12-13T01:32:00.657Z,1009.73
2022-12-13T01:33:00.662Z,1009.75
2022-12-13T01:34:00.643Z,1009.76
2022-12-13T01:35:00.606Z,1009.84
2022-12-13T01:36:00.604Z,1009.77
2022-12-13T01:37:00.585Z,1009.79
2022-12-13T01:38:00.601Z,1009.83
2022-12-13T01:39:00.622Z,1009.82
2022-12-13T01:40:00.557Z,1009.89
2022-12-13T01:41:00.563Z,1009.77
2022-12-13T01:42:00.533Z,1009.86
2022-12-13T01:43:00.503Z,1009.89
2022-12-13T01:44:00.526Z,1009.82
2022-12-13T01:45:00.510Z,1009.82
2022-12-13T01:46:00.542Z,1009.84
2022-12-13T01:47:00.451Z,1009.80
2022-12-13T01:48:00.487Z,1009.82
2022-12-13T01:49:00.472Z,1009.84
2022-12-13T01:50:00.430Z,1009.87
2022-12-13T01:51:00.421Z,1009.89
2022-12-13T01:52:00.421Z,1009.91
2022-12-13T01:53:00.464Z,1009.85
2022-12-13T01:54:00.427Z,1009.87
2022-12-13T01:55:03.350Z,1009.84
2022-12-13T01:56:00.360Z,1009.94
2022-12-13T01:57:01.065Z,1009.91
2022-12-13T01:58:00.365Z,1009.90
2022-12-13T01:59:00.328Z,1009.92
2022-12-13T02:00:00.326Z,1009.89
2022-12-13T02:01:00.333Z,1009.89
2022-12-13T02:02:00.842Z,1009.93
2022-12-13T02:03:00.276Z,1009.92
2022-12-13T02:04:00.268Z,1009.93
2022-12-13T02:05:00.369Z,1009.92
2022-12-13T02:06:00.515Z,1009.84
2022-12-13T02:07:00.205Z,1009.90
2022-12-13T02:08:00.326Z,1009.85
2022-12-13T02:09:00.212Z,1009.89
2022-12-13T02:10:00.207Z,1009.86
2022-12-13T02:11:00.191Z,1009.85
2022-12-13T02:12:00.154Z,1009.85
2022-12-13T02:13:00.162Z,1009.84
2022-12-13T02:14:00.117Z,1009.84
2022-12-13T02:15:12.524Z,1009.88
2022-12-13T02:16:01.295Z,1009.87
2022-12-13T02:17:00.123Z,1009.80
2022-12-13T02:18:00.081Z,1009.84
2022-12-13T02:19:00.356Z,1009.83
2022-12-13T02:20:00.099Z,1009.86
2022-12-13T02:21:00.106Z,1009.82
2022-12-13T02:22:00.074Z,1009.91
2022-12-13T02:23:00.026Z,1009.82
2022-12-13T02:23:59.995Z,1009.85
2022-12-13T02:25:01.025Z,1009.84
2022-12-13T02:25:59.998Z,1009.80
2022-12-13T02:27:00.053Z,1009.89
2022-12-13T02:28:00.867Z,1009.86
2022-12-13T02:28:59.974Z,1009.83
2022-12-13T02:29:59.952Z,1009.82
2022-12-13T02:31:00.045Z,1009.90
2022-12-13T02:32:00.647Z,1009.83
2022-12-13T02:32:59.936Z,1009.88
2022-12-13T02:33:59.896Z,1009.90
2022-12-13T02:34:59.893Z,1009.87
2022-12-13T02:35:59.873Z,1009.86
2022-12-13T02:36:59.898Z,1009.80
2022-12-13T02:37:59.828Z,1009.83
2022-12-13T02:38:59.823Z,1009.90
2022-12-13T02:39:59.796Z,1009.86
2022-12-13T02:41:00.784Z,1009.88
2022-12-13T02:41:59.816Z,1009.85
2022-12-13T02:42:59.773Z,1009.88
2022-12-13T02:44:01.322Z,1009.87
2022-12-13T02:44:59.780Z,1009.91
2022-12-13T02:45:59.783Z,1009.90
2022-12-13T02:46:59.743Z,1009.90
2022-12-13T02:47:59.733Z,1009.83
2022-12-13T02:48:59.703Z,1009.89
2022-12-13T02:49:59.673Z,1009.82
2022-12-13T02:50:59.699Z,1009.87
2022-12-13T02:51:59.662Z,1009.82
2022-12-13T02:52:59.653Z,1009.90
2022-12-13T02:53:59.622Z,1009.93
2022-12-13T02:54:59.648Z,1009.88
2022-12-13T02:55:59.618Z,1009.84
2022-12-13T02:56:59.610Z,1009.82
2022-12-13T02:57:59.598Z,1009.80
2022-12-13T02:58:59.606Z,1009.84
2022-12-13T02:59:59.566Z,1009.75
2022-12-13T03:00:59.574Z,1009.79
2022-12-13T03:02:09.709Z,1009.77
2022-12-13T03:03:00.789Z,1009.82
2022-12-13T03:04:01.024Z,1009.76
2022-12-13T03:04:59.537Z,1009.75
2022-12-13T03:05:59.505Z,1009.72
2022-12-13T03:06:59.478Z,1009.76
2022-12-13T03:07:59.527Z,1009.71
2022-12-13T03:08:59.501Z,1009.81
2022-12-13T03:09:59.453Z,1009.79
2022-12-13T03:10:59.465Z,1009.80
2022-12-13T03:11:59.397Z,1009.70
2022-12-13T03:12:59.431Z,1009.82
2022-12-13T03:13:59.373Z,1009.76
2022-12-13T03:14:59.413Z,1009.76
2022-12-13T03:15:59.417Z,1009.75
2022-12-13T03:16:59.355Z,1009.74
2022-12-13T03:17:59.329Z,1009.77
2022-12-13T03:18:59.360Z,1009.74
2022-12-13T03:19:59.370Z,1009.71
2022-12-13T03:20:59.330Z,1009.71
2022-12-13T03:21:59.300Z,1009.76
2022-12-13T03:22:59.315Z,1009.74
2022-12-13T03:23:59.291Z,1009.78
2022-12-13T03:24:59.272Z,1009.73
2022-12-13T03:25:59.246Z,1009.73
2022-12-13T03:26:59.259Z,1009.78
2022-12-13T03:28:01.217Z,1009.77
2022-12-13T03:28:59.200Z,1009.79
2022-12-13T03:29:59.198Z,1009.82
2022-12-13T03:30:59.227Z,1009.78
2022-12-13T03:31:59.206Z,1009.79
2022-12-13T03:32:59.158Z,1009.78
2022-12-13T03:33:59.176Z,1009.79
2022-12-13T03:35:00.802Z,1009.79
2022-12-13T03:35:59.139Z,1009.83
2022-12-13T03:36:59.120Z,1009.74
2022-12-13T03:37:59.082Z,1009.78
2022-12-13T03:38:59.089Z,1009.80
2022-12-13T03:39:59.057Z,1009.74
2022-12-13T03:40:59.109Z,1009.73
2022-12-13T03:41:59.084Z,1009.75
2022-12-13T03:42:59.055Z,1009.69
2022-12-13T03:43:59.029Z,1009.76
2022-12-13T03:44:59.029Z,1009.78
2022-12-13T03:45:59.011Z,1009.75
2022-12-13T03:47:00.908Z,1009.74
2022-12-13T03:47:58.993Z,1009.72
2022-12-13T03:48:58.981Z,1009.77
2022-12-13T03:49:58.959Z,1009.77
2022-12-13T03:50:59.970Z,1009.69
2022-12-13T03:51:58.951Z,1009.71
2022-12-13T03:52:58.931Z,1009.72
2022-12-13T03:53:58.897Z,1009.64
2022-12-13T03:54:58.929Z,1009.70
2022-12-13T03:55:58.854Z,1009.70
2022-12-13T03:56:58.875Z,1009.70
2022-12-13T03:58:03.225Z,1009.68
2022-12-13T03:58:59.853Z,1009.63
2022-12-13T03:59:58.812Z,1009.64
2022-12-13T04:00:58.858Z,1009.65
2022-12-13T04:01:58.880Z,1009.75
2022-12-13T04:02:58.863Z,1009.72
2022-12-13T04:03:58.787Z,1009.66
2022-12-13T04:05:00.677Z,1009.68
2022-12-13T04:05:58.758Z,1009.69
2022-12-13T04:06:58.730Z,1009.69
2022-12-13T04:08:00.976Z,1009.69
2022-12-13T04:08:58.728Z,1009.62
2022-12-13T04:09:58.706Z,1009.60
2022-12-13T04:10:58.709Z,1009.66
2022-12-13T04:11:58.686Z,1009.67
2022-12-13T04:13:00.451Z,1009.67
2022-12-13T04:13:58.656Z,1009.60
2022-12-13T04:14:58.656Z,1009.70
2022-12-13T04:15:58.700Z,1009.64
2022-12-13T04:16:58.612Z,1009.66
2022-12-13T04:17:58.606Z,1009.65
2022-12-13T04:18:58.623Z,1009.69
2022-12-13T04:19:58.566Z,1009.69
2022-12-13T04:20:58.610Z,1009.67
2022-12-13T04:21:58.561Z,1009.70
2022-12-13T04:22:58.581Z,1009.64
2022-12-13T04:24:01.199Z,1009.67
2022-12-13T04:24:58.553Z,1009.65
2022-12-13T04:25:58.513Z,1009.69
2022-12-13T04:26:58.484Z,1009.61
2022-12-13T04:27:58.563Z,1009.68
2022-12-13T04:28:58.502Z,1009.67
2022-12-13T04:29:58.431Z,1009.63
2022-12-13T04:30:58.459Z,1009.63
2022-12-13T04:31:58.403Z,1009.64
2022-12-13T04:32:58.431Z,1009.64
2022-12-13T04:33:58.397Z,1009.58
2022-12-13T04:35:01.127Z,1009.58
2022-12-13T04:35:58.404Z,1009.58
2022-12-13T04:36:58.374Z,1009.59
2022-12-13T04:37:58.340Z,1009.54
2022-12-13T04:38:58.332Z,1009.60
2022-12-13T04:40:00.679Z,1009.57
2022-12-13T04:40:58.319Z,1009.52
2022-12-13T04:41:58.311Z,1009.57
2022-12-13T04:42:58.326Z,1009.55
2022-12-13T04:43:58.316Z,1009.54
2022-12-13T04:44:58.271Z,1009.56
2022-12-13T04:45:58.306Z,1009.59
2022-12-13T04:47:01.220Z,1009.63
2022-12-13T04:47:58.208Z,1009.55
2022-12-13T04:48:58.244Z,1009.59
2022-12-13T04:49:58.205Z,1009.57
2022-12-13T04:50:58.185Z,1009.59
2022-12-13T04:52:01.207Z,1009.59
2022-12-13T04:52:58.156Z,1009.56
2022-12-13T04:53:58.166Z,1009.56
2022-12-13T04:54:59.202Z,1009.57
2022-12-13T04:55:58.171Z,1009.50
2022-12-13T04:56:58.142Z,1009.52
2022-12-13T04:57:58.122Z,1009.50
2022-12-13T04:58:58.139Z,1009.45
2022-12-13T04:59:58.142Z,1009.42
2022-12-13T05:00:58.116Z,1009.47
2022-12-13T05:01:58.108Z,1009.48
2022-12-13T05:02:58.068Z,1009.46
2022-12-13T05:03:58.014Z,1009.48
2022-12-13T05:04:58.040Z,1009.47
2022-12-13T05:05:58.021Z,1009.47
2022-12-13T05:06:58.022Z,1009.47
2022-12-13T05:07:57.999Z,1009.42
2022-12-13T05:09:00.847Z,1009.40
2022-12-13T05:09:57.940Z,1009.42
2022-12-13T05:10:57.987Z,1009.37
2022-12-13T05:12:01.083Z,1009.36
2022-12-13T05:12:57.940Z,1009.35
2022-12-13T05:13:57.916Z,1009.33
2022-12-13T05:14:57.916Z,1009.30
2022-12-13T05:15:57.903Z,1009.32
2022-12-13T05:16:58.004Z,1009.36
2022-12-13T05:17:57.886Z,1009.34
2022-12-13T05:18:57.875Z,1009.39
2022-12-13T05:19:57.812Z,1009.34
2022-12-13T05:20:57.839Z,1009.31
2022-12-13T05:21:57.853Z,1009.35
2022-12-13T05:22:57.788Z,1009.34
2022-12-13T05:23:57.765Z,1009.41
2022-12-13T05:24:57.767Z,1009.41
2022-12-13T05:25:57.747Z,1009.47
2022-12-13T05:26:57.782Z,1009.49
2022-12-13T05:27:57.749Z,1009.49
2022-12-13T05:28:57.738Z,1009.51
2022-12-13T05:30:05.522Z,1009.51
2022-12-13T05:30:58.733Z,1009.45
2022-12-13T05:31:57.807Z,1009.52
2022-12-13T05:32:57.665Z,1009.46
2022-12-13T05:34:01.558Z,1009.39
2022-12-13T05:34:57.653Z,1009.43
2022-12-13T05:36:01.317Z,1009.34
2022-12-13T05:36:57.639Z,1009.41
2022-12-13T05:37:57.604Z,1009.41
2022-12-13T05:38:57.613Z,1009.37
2022-12-13T05:39:57.574Z,1009.37
2022-12-13T05:40:57.619Z,1009.35
2022-12-13T05:42:01.822Z,1009.38
2022-12-13T05:43:01.280Z,1009.32
2022-12-13T05:43:57.520Z,1009.32
2022-12-13T05:44:57.523Z,1009.25
2022-12-13T05:45:57.555Z,1009.34
2022-12-13T05:46:57.516Z,1009.31
2022-12-13T05:47:57.491Z,1009.31
2022-12-13T05:48:57.498Z,1009.35
2022-12-13T05:49:57.449Z,1009.34
2022-12-13T05:51:09.888Z,1009.33
2022-12-13T05:51:58.410Z,1009.39
2022-12-13T05:52:57.479Z,1009.37
2022-12-13T05:53:57.435Z,1009.37
2022-12-13T05:55:01.084Z,1009.38
2022-12-13T05:55:57.395Z,1009.39
2022-12-13T05:56:57.411Z,1009.36
2022-12-13T05:58:02.518Z,1009.39
2022-12-13T05:58:58.407Z,1009.37
2022-12-13T05:59:57.359Z,1009.36
2022-12-13T06:00:57.351Z,1009.28
2022-12-13T06:01:57.384Z,1009.32
2022-12-13T06:02:57.473Z,1009.35
2022-12-13T06:03:57.357Z,1009.34
2022-12-13T06:04:57.295Z,1009.35
2022-12-13T06:05:57.283Z,1009.29
2022-12-13T06:06:57.272Z,1009.34
2022-12-13T06:07:58.148Z,1009.32
2022-12-13T06:08:57.245Z,1009.29
2022-12-13T06:10:21.645Z,1009.29
2022-12-13T06:11:11.261Z,1009.28
2022-12-13T06:12:01.050Z,1009.26
2022-12-13T06:13:01.148Z,1009.27
2022-12-13T06:14:01.174Z,1009.31
2022-12-13T06:15:01.244Z,1009.32
2022-12-13T06:16:01.343Z,1009.33
2022-12-13T06:16:57.204Z,1009.30
2022-12-13T06:17:57.125Z,1009.35
2022-12-13T06:19:03.888Z,1009.33
2022-12-13T06:19:58.136Z,1009.34
2022-12-13T06:20:57.071Z,1009.32
2022-12-13T06:21:57.099Z,1009.30
2022-12-13T06:22:57.051Z,1009.32
2022-12-13T06:23:57.040Z,1009.36
2022-12-13T06:24:57.045Z,1009.34
2022-12-13T06:25:57.055Z,1009.36
2022-12-13T06:26:57.026Z,1009.29
2022-12-13T06:27:56.985Z,1009.33
2022-12-13T06:28:56.998Z,1009.30
2022-12-13T06:30:02.181Z,1009.28
2022-12-13T06:30:57.990Z,1009.26
2022-12-13T06:32:02.343Z,1009.28
2022-12-13T06:32:57.933Z,1009.31
2022-12-13T06:33:56.941Z,1009.27
2022-12-13T06:34:56.974Z,1009.30
2022-12-13T06:35:56.930Z,1009.24
2022-12-13T06:36:56.875Z,1009.25
2022-12-13T06:38:01.348Z,1009.24
2022-12-13T06:38:57.845Z,1009.30
2022-12-13T06:39:56.834Z,1009.33
2022-12-13T06:40:56.832Z,1009.34
2022-12-13T06:41:56.844Z,1009.33
2022-12-13T06:42:56.815Z,1009.34
2022-12-13T06:43:56.812Z,1009.36
2022-12-13T06:44:56.765Z,1009.34
2022-12-13T06:45:56.811Z,1009.30
2022-12-13T06:47:12.049Z,1009.34
2022-12-13T06:47:57.779Z,1009.29
2022-12-13T06:48:56.722Z,1009.24
2022-12-13T06:49:56.729Z,1009.32
2022-12-13T06:50:57.692Z,1009.23
2022-12-13T06:51:56.713Z,1009.26
2022-12-13T06:52:56.709Z,1009.26
2022-12-13T06:53:56.671Z,1009.30
2022-12-13T06:54:59.889Z,1009.32
2022-12-13T06:55:56.666Z,1009.33
2022-12-13T06:56:56.658Z,1009.29
2022-12-13T06:57:56.620Z,1009.30
2022-12-13T06:59:01.656Z,1009.35
2022-12-13T06:59:57.616Z,1009.37
2022-12-13T07:00:56.568Z,1009.28
2022-12-13T07:02:03.158Z,1009.36
2022-12-13T07:02:57.605Z,1009.39
2022-12-13T07:03:56.546Z,1009.34
2022-12-13T07:05:03.318Z,1009.33
2022-12-13T07:05:58.401Z,1009.33
2022-12-13T07:06:56.516Z,1009.33
2022-12-13T07:07:57.547Z,1009.33
2022-12-13T07:08:56.498Z,1009.31
2022-12-13T07:09:56.493Z,1009.27
2022-12-13T07:10:56.473Z,1009.30
2022-12-13T07:11:56.444Z,1009.34
2022-12-13T07:12:56.431Z,1009.29
2022-12-13T07:13:56.442Z,1009.33
2022-12-13T07:14:56.395Z,1009.26
2022-12-13T07:16:01.011Z,1009.29
2022-12-13T07:17:03.391Z,1009.26
2022-12-13T07:17:57.406Z,1009.26
2022-12-13T07:19:01.249Z,1009.35
2022-12-13T07:19:57.369Z,1009.34
2022-12-13T07:20:56.339Z,1009.34
2022-12-13T07:21:56.350Z,1009.33
2022-12-13T07:22:59.123Z,1009.35
2022-12-13T07:23:56.291Z,1009.41
2022-12-13T07:24:56.299Z,1009.41
2022-12-13T07:25:56.299Z,1009.33
2022-12-13T07:26:56.241Z,1009.31
2022-12-13T07:27:56.301Z,1009.33
2022-12-13T07:28:57.247Z,1009.29
2022-12-13T07:29:56.220Z,1009.34
2022-12-13T07:30:56.280Z,1009.36
2022-12-13T07:32:01.146Z,1009.41
2022-12-13T07:32:57.189Z,1009.36
2022-12-13T07:33:56.204Z,1009.38
2022-12-13T07:34:56.155Z,1009.39
2022-12-13T07:35:56.147Z,1009.37
2022-12-13T07:36:56.128Z,1009.42
2022-12-13T07:37:56.154Z,1009.42
2022-12-13T07:38:56.133Z,1009.33
2022-12-13T07:40:02.580Z,1009.31
2022-12-13T07:40:57.109Z,1009.33
2022-12-13T07:41:56.174Z,1009.29
2022-12-13T07:42:56.088Z,1009.38
2022-12-13T07:43:56.314Z,1009.33
2022-12-13T07:44:56.029Z,1009.37
2022-12-13T07:45:56.147Z,1009.40
2022-12-13T07:46:56.070Z,1009.37
2022-12-13T07:47:56.060Z,1009.37
2022-12-13T07:48:56.012Z,1009.39
2022-12-13T07:49:57.028Z,1009.32
2022-12-13T07:50:55.976Z,1009.35
2022-12-13T07:51:55.972Z,1009.35
2022-12-13T07:52:55.952Z,1009.42
2022-12-13T07:53:55.923Z,1009.38
2022-12-13T07:54:55.940Z,1009.38
2022-12-13T07:55:55.902Z,1009.37
2022-12-13T07:57:01.161Z,1009.41
2022-12-13T07:57:56.874Z,1009.36
2022-12-13T07:58:55.853Z,1009.33
2022-12-13T07:59:55.877Z,1009.40
2022-12-13T08:00:55.933Z,1009.49
2022-12-13T08:01:55.882Z,1009.32
2022-12-13T08:02:55.800Z,1009.37
2022-12-13T08:03:55.826Z,1009.37
2022-12-13T08:04:55.959Z,1009.30
2022-12-13T08:05:58.638Z,1009.37
2022-12-13T08:06:55.786Z,1009.30
2022-12-13T08:07:55.838Z,1009.36
2022-12-13T08:08:55.732Z,1009.36
2022-12-13T08:09:55.747Z,1009.37
2022-12-13T08:10:55.725Z,1009.33
2022-12-13T08:11:56.710Z,1009.33
2022-12-13T08:12:55.680Z,1009.35
2022-12-13T08:13:55.684Z,1009.38
2022-12-13T08:14:55.677Z,1009.37
2022-12-13T08:15:55.720Z,1009.40
2022-12-13T08:16:55.672Z,1009.40
2022-12-13T08:17:55.636Z,1009.38
2022-12-13T08:19:02.528Z,1009.38
2022-12-13T08:19:56.612Z,1009.41
2022-12-13T08:20:55.605Z,1009.47
2022-12-13T08:21:57.751Z,1009.45
2022-12-13T08:22:55.554Z,1009.46
2022-12-13T08:23:56.564Z,1009.41
2022-12-13T08:24:55.547Z,1009.50
2022-12-13T08:25:55.587Z,1009.48
2022-12-13T08:26:55.511Z,1009.42
2022-12-13T08:27:55.503Z,1009.44
2022-12-13T08:28:56.482Z,1009.49
2022-12-13T08:29:55.486Z,1009.50
2022-12-13T08:30:55.544Z,1009.48
2022-12-13T08:31:55.492Z,1009.55
2022-12-13T08:32:56.441Z,1009.53
2022-12-13T08:33:55.457Z,1009.51
2022-12-13T08:34:55.431Z,1009.55
2022-12-13T08:35:55.496Z,1009.59
2022-12-13T08:37:01.921Z,1009.60
2022-12-13T08:37:56.394Z,1009.58
2022-12-13T08:38:55.388Z,1009.62
2022-12-13T08:39:55.393Z,1009.55
2022-12-13T08:40:55.434Z,1009.53
2022-12-13T08:41:55.376Z,1009.54
2022-12-13T08:42:55.416Z,1009.61
2022-12-13T08:43:55.344Z,1009.52
2022-12-13T08:44:55.304Z,1009.53
2022-12-13T08:45:55.288Z,1009.50
2022-12-13T08:46:56.329Z,1009.47
2022-12-13T08:47:55.290Z,1009.56
2022-12-13T08:48:55.297Z,1009.48
2022-12-13T08:49:55.291Z,1009.47
2022-12-13T08:50:55.234Z,1009.48
2022-12-13T08:51:55.234Z,1009.56
2022-12-13T08:52:55.242Z,1009.52
2022-12-13T08:54:11.272Z,1009.51
2022-12-13T08:54:56.199Z,1009.55
2022-12-13T08:55:55.164Z,1009.50
2022-12-13T08:56:55.134Z,1009.49
2022-12-13T08:57:55.192Z,1009.45
2022-12-13T08:58:55.150Z,1009.51
2022-12-13T08:59:55.139Z,1009.53
2022-12-13T09:00:55.162Z,1009.45
2022-12-13T09:01:57.746Z,1009.50
2022-12-13T09:02:56.102Z,1009.55
2022-12-13T09:03:55.128Z,1009.56
2022-12-13T09:04:55.033Z,1009.53
2022-12-13T09:05:55.060Z,1009.54
2022-12-13T09:06:55.012Z,1009.58
2022-12-13T09:07:55.166Z,1009.53
2022-12-13T09:08:55.072Z,1009.49
2022-12-13T09:09:55.306Z,1009.59
2022-12-13T09:10:54.979Z,1009.55
2022-12-13T09:11:59.563Z,1009.67
2022-12-13T09:13:01.545Z,1009.63
2022-12-13T09:14:01.607Z,1009.71
2022-12-13T09:15:01.451Z,1009.63
2022-12-13T09:16:01.585Z,1009.68
2022-12-13T09:16:55.944Z,1009.69
2022-12-13T09:17:55.969Z,1009.65
2022-12-13T09:18:56.482Z,1009.63
2022-12-13T09:19:58.189Z,1009.59
2022-12-13T09:20:54.896Z,1009.55
2022-12-13T09:22:02.678Z,1009.58
2022-12-13T09:23:02.427Z,1009.59
2022-12-13T09:23:55.860Z,1009.57
2022-12-13T09:24:55.788Z,1009.64
2022-12-13T09:25:55.792Z,1009.58
2022-12-13T09:26:57.332Z,1009.59
2022-12-13T09:27:54.764Z,1009.61
2022-12-13T09:28:54.765Z,1009.62
2022-12-13T09:29:54.771Z,1009.59
2022-12-13T09:30:54.741Z,1009.60
2022-12-13T09:31:54.772Z,1009.60
2022-12-13T09:32:54.713Z,1009.61
2022-12-13T09:33:54.703Z,1009.64
2022-12-13T09:34:54.682Z,1009.59
2022-12-13T09:35:54.702Z,1009.70
2022-12-13T09:36:54.640Z,1009.69
2022-12-13T09:37:55.669Z,1009.60
2022-12-13T09:38:54.632Z,1009.65
2022-12-13T09:39:55.203Z,1009.64
2022-12-13T09:40:58.549Z,1009.59
2022-12-13T09:42:00.778Z,1009.63
2022-12-13T09:43:12.554Z,1009.60
2022-12-13T09:43:55.586Z,1009.58
2022-12-13T09:45:03.151Z,1009.60
2022-12-13T09:46:00.966Z,1009.55
2022-12-13T09:46:55.614Z,1009.59
2022-12-13T09:48:01.203Z,1009.60
2022-12-13T09:49:01.404Z,1009.54
2022-12-13T09:49:55.548Z,1009.52
2022-12-13T09:51:16.571Z,1009.50
2022-12-13T09:52:10.697Z,1009.57
2022-12-13T09:52:59.731Z,1009.54
2022-12-13T09:53:54.494Z,1009.54
2022-12-13T09:54:54.447Z,1009.47
2022-12-13T09:55:54.454Z,1009.54
2022-12-13T09:56:55.397Z,1009.53
2022-12-13T09:57:54.396Z,1009.58
2022-12-13T09:58:54.413Z,1009.57
2022-12-13T10:00:00.962Z,1009.62
2022-12-13T10:00:55.409Z,1009.63
2022-12-13T10:01:54.394Z,1009.63
2022-12-13T10:02:54.351Z,1009.64
2022-12-13T10:03:54.341Z,1009.62
2022-12-13T10:04:54.303Z,1009.65
2022-12-13T10:05:55.341Z,1009.59
2022-12-13T10:06:54.295Z,1009.55
2022-12-13T10:07:54.308Z,1009.54
2022-12-13T10:08:57.640Z,1009.55
2022-12-13T10:09:54.252Z,1009.46
2022-12-13T10:10:54.222Z,1009.44
2022-12-13T10:11:54.221Z,1009.47
2022-12-13T10:12:54.201Z,1009.44
2022-12-13T10:13:54.191Z,1009.46
2022-12-13T10:14:54.279Z,1009.45
2022-12-13T10:15:54.197Z,1009.42
2022-12-13T10:16:54.218Z,1009.40
2022-12-13T10:17:55.210Z,1009.35
2022-12-13T10:18:54.146Z,1009.39
2022-12-13T10:19:54.167Z,1009.42
2022-12-13T10:20:54.115Z,1009.44
2022-12-13T10:21:54.099Z,1009.35
2022-12-13T10:23:31.493Z,1009.30
2022-12-13T10:24:55.070Z,1009.33
2022-12-13T10:25:54.098Z,1009.31
2022-12-13T10:26:55.091Z,1009.24
2022-12-13T10:27:54.017Z,1009.28
2022-12-13T10:28:54.010Z,1009.15
2022-12-13T10:29:54.047Z,1009.13
2022-12-13T10:30:54.022Z,1009.22
2022-12-13T10:31:54.058Z,1009.11
2022-12-13T10:32:53.973Z,1009.12
2022-12-13T10:33:53.973Z,1009.16
2022-12-13T10:34:53.952Z,1009.08
2022-12-13T10:35:54.001Z,1009.08
2022-12-13T10:36:53.901Z,1009.16
2022-12-13T10:37:54.930Z,1009.09
2022-12-13T10:38:53.910Z,1009.04
2022-12-13T10:39:53.911Z,1009.11
2022-12-13T10:40:53.931Z,1009.06
2022-12-13T10:41:53.875Z,1009.01
2022-12-13T10:42:53.859Z,1009.05
2022-12-13T10:43:53.848Z,1009.01
2022-12-13T10:44:53.853Z,1009.04
2022-12-13T10:45:53.820Z,1008.97
2022-12-13T10:46:53.885Z,1008.96
2022-12-13T10:47:53.761Z,1008.94
2022-12-13T10:48:53.759Z,1008.93
2022-12-13T10:49:58.926Z,1008.92
2022-12-13T10:50:54.776Z,1008.88
2022-12-13T10:51:53.719Z,1008.83
2022-12-13T10:52:53.729Z,1008.86
2022-12-13T10:53:53.690Z,1008.80
2022-12-13T10:54:53.729Z,1008.67
2022-12-13T10:55:54.670Z,1008.71
2022-12-13T10:56:53.686Z,1008.69
2022-12-13T10:57:53.688Z,1008.67
2022-12-13T10:58:53.660Z,1008.65
2022-12-13T10:59:53.635Z,1008.68
2022-12-13T11:00:53.771Z,1008.63
2022-12-13T11:01:53.648Z,1008.70
2022-12-13T11:02:53.603Z,1008.62
2022-12-13T11:03:53.600Z,1008.58
2022-12-13T11:04:54.594Z,1008.52
2022-12-13T11:05:53.555Z,1008.57
2022-12-13T11:06:53.555Z,1008.54
2022-12-13T11:07:53.544Z,1008.47
2022-12-13T11:08:53.542Z,1008.49
2022-12-13T11:09:53.485Z,1008.54
2022-12-13T11:10:53.523Z,1008.50
2022-12-13T11:11:58.332Z,1008.50
2022-12-13T11:12:54.488Z,1008.49
2022-12-13T11:13:53.485Z,1008.47
2022-12-13T11:14:53.440Z,1008.51
2022-12-13T11:15:53.509Z,1008.48
2022-12-13T11:16:53.452Z,1008.48
2022-12-13T11:17:53.414Z,1008.42
2022-12-13T11:18:53.456Z,1008.41
2022-12-13T11:19:53.409Z,1008.42
2022-12-13T11:20:54.305Z,1008.47
2022-12-13T11:21:53.351Z,1008.36
2022-12-13T11:22:53.378Z,1008.40
2022-12-13T11:23:53.337Z,1008.35
2022-12-13T11:24:53.360Z,1008.34
2022-12-13T11:25:53.289Z,1008.37
2022-12-13T11:26:54.111Z,1008.32
2022-12-13T11:27:53.296Z,1008.23
2022-12-13T11:28:53.309Z,1008.15
2022-12-13T11:29:53.267Z,1008.17
2022-12-13T11:30:53.243Z,1008.20
2022-12-13T11:31:53.260Z,1008.19
2022-12-13T11:32:58.755Z,1008.18
2022-12-13T11:33:54.217Z,1008.16
2022-12-13T11:34:53.189Z,1008.18
2022-12-13T11:35:53.195Z,1008.19
2022-12-13T11:36:53.203Z,1008.20
2022-12-13T11:37:53.170Z,1008.21
2022-12-13T11:38:57.732Z,1008.23
2022-12-13T11:39:53.160Z,1008.26
2022-12-13T11:40:54.142Z,1008.27
2022-12-13T11:41:53.114Z,1008.31
2022-12-13T11:42:53.115Z,1008.28
2022-12-13T11:43:53.067Z,1008.21
2022-12-13T11:44:53.090Z,1008.25
2022-12-13T11:45:53.071Z,1008.26
2022-12-13T11:46:53.088Z,1008.21
2022-12-13T11:47:58.140Z,1008.16
2022-12-13T11:48:54.071Z,1008.15
2022-12-13T11:49:53.010Z,1008.13
2022-12-13T11:50:53.017Z,1008.11
2022-12-13T11:51:53.017Z,1008.19
2022-12-13T11:52:52.971Z,1008.19
2022-12-13T11:53:52.974Z,1008.16
2022-12-13T11:54:52.997Z,1008.19
2022-12-13T11:55:52.947Z,1008.10
2022-12-13T11:57:00.558Z,1008.06
2022-12-13T11:57:53.914Z,1008.12
2022-12-13T11:59:02.552Z,1008.07
2022-12-13T11:59:53.906Z,1008.14
2022-12-13T12:00:53.872Z,1008.16
2022-12-13T12:01:52.852Z,1008.07
2022-12-13T12:02:52.987Z,1008.19
2022-12-13T12:03:52.878Z,1008.08
2022-12-13T12:04:59.676Z,1008.07
2022-12-13T12:05:55.952Z,1007.99